Terminal Aerodrome Forecast
Issued by NWS Grand Forks, ND

Home | Current Version | Previous Version | Text Only | Print | Product List | Glossary Off
Versions: 1 2 3 4 5 6 7 8 9 10 11 12 13 14 15 16 17 18 19 20

000
FTUS43 KFGF 241130
TAFGFK
TAF
KGFK 241130Z 2412/2512 26008KT P6SM SKC
     FM241500 27013G22KT P6SM FEW250
     FM250400 28009KT P6SM BKN080
     FM250900 29010KT P6SM BKN030=

USA.gov is the U.S. government's official web portal to all federal, state and local government web resources and services.